sensor_id;sensor_type;location;lat;lon;timestamp;P1;durP1;ratioP1;P2;durP2;ratioP2
55065;SDS011;40964;42.114;24.220;2023-02-11T00:00:13;15.10;;;6.32;;
55065;SDS011;40964;42.114;24.220;2023-02-11T00:02:39;12.32;;;5.70;;
55065;SDS011;40964;42.114;24.220;2023-02-11T00:05:05;12.38;;;5.28;;
55065;SDS011;40964;42.114;24.220;2023-02-11T00:07:31;4.88;;;3.35;;
55065;SDS011;40964;42.114;24.220;2023-02-11T00:09:58;10.73;;;3.30;;
55065;SDS011;40964;42.114;24.220;2023-02-11T00:12:24;7.60;;;3.67;;
55065;SDS011;40964;42.114;24.220;2023-02-11T00:14:49;8.65;;;3.30;;
55065;SDS011;40964;42.114;24.220;2023-02-11T00:17:15;4.65;;;3.42;;
55065;SDS011;40964;42.114;24.220;2023-02-11T00:19:41;4.20;;;2.75;;
55065;SDS011;40964;42.114;24.220;2023-02-11T00:22:07;4.50;;;2.72;;
55065;SDS011;40964;42.114;24.220;2023-02-11T00:24:32;7.43;;;3.88;;
55065;SDS011;40964;42.114;24.220;2023-02-11T00:26:58;7.85;;;3.47;;
55065;SDS011;40964;42.114;24.220;2023-02-11T00:29:23;7.13;;;3.38;;
55065;SDS011;40964;42.114;24.220;2023-02-11T00:31:49;4.38;;;2.38;;
55065;SDS011;40964;42.114;24.220;2023-02-11T00:34:14;10.82;;;3.20;;
55065;SDS011;40964;42.114;24.220;2023-02-11T00:36:40;10.20;;;3.30;;
55065;SDS011;40964;42.114;24.220;2023-02-11T00:39:06;10.52;;;4.13;;
55065;SDS011;40964;42.114;24.220;2023-02-11T00:41:32;8.02;;;3.50;;
55065;SDS011;40964;42.114;24.220;2023-02-11T00:43:58;8.05;;;3.03;;
55065;SDS011;40964;42.114;24.220;2023-02-11T00:46:24;7.85;;;3.50;;
55065;SDS011;40964;42.114;24.220;2023-02-11T00:48:49;7.68;;;2.78;;
55065;SDS011;40964;42.114;24.220;2023-02-11T00:51:17;7.10;;;3.53;;
55065;SDS011;40964;42.114;24.220;2023-02-11T00:53:42;10.32;;;3.63;;
55065;SDS011;40964;42.114;24.220;2023-02-11T00:56:08;9.85;;;3.67;;
55065;SDS011;40964;42.114;24.220;2023-02-11T00:58:34;6.72;;;2.88;;
55065;SDS011;40964;42.114;24.220;2023-02-11T01:01:00;4.68;;;2.58;;
55065;SDS011;40964;42.114;24.220;2023-02-11T01:03:26;2.85;;;2.63;;
55065;SDS011;40964;42.114;24.220;2023-02-11T01:05:51;5.78;;;3.22;;
55065;SDS011;40964;42.114;24.220;2023-02-11T01:08:17;7.35;;;3.65;;
55065;SDS011;40964;42.114;24.220;2023-02-11T01:10:43;10.52;;;4.93;;
55065;SDS011;40964;42.114;24.220;2023-02-11T01:13:09;6.15;;;3.72;;
55065;SDS011;40964;42.114;24.220;2023-02-11T01:15:34;13.45;;;6.55;;
55065;SDS011;40964;42.114;24.220;2023-02-11T01:18:00;9.30;;;5.03;;
55065;SDS011;40964;42.114;24.220;2023-02-11T01:20:26;13.15;;;5.93;;
55065;SDS011;40964;42.114;24.220;2023-02-11T01:22:52;16.95;;;7.03;;
55065;SDS011;40964;42.114;24.220;2023-02-11T01:25:18;21.30;;;5.60;;
55065;SDS011;40964;42.114;24.220;2023-02-11T01:27:43;9.85;;;3.08;;
55065;SDS011;40964;42.114;24.220;2023-02-11T01:30:10;7.32;;;2.85;;
55065;SDS011;40964;42.114;24.220;2023-02-11T01:32:37;8.43;;;3.35;;
55065;SDS011;40964;42.114;24.220;2023-02-11T01:35:02;5.68;;;2.92;;
55065;SDS011;40964;42.114;24.220;2023-02-11T01:37:28;6.00;;;3.05;;
55065;SDS011;40964;42.114;24.220;2023-02-11T01:39:54;6.78;;;2.88;;
55065;SDS011;40964;42.114;24.220;2023-02-11T01:42:20;5.07;;;2.70;;
55065;SDS011;40964;42.114;24.220;2023-02-11T01:44:51;5.60;;;3.30;;
55065;SDS011;40964;42.114;24.220;2023-02-11T01:47:18;8.32;;;3.65;;
55065;SDS011;40964;42.114;24.220;2023-02-11T01:49:46;3.88;;;2.35;;
55065;SDS011;40964;42.114;24.220;2023-02-11T01:52:19;2.38;;;1.35;;
55065;SDS011;40964;42.114;24.220;2023-02-11T01:54:51;5.70;;;2.63;;
55065;SDS011;40964;42.114;24.220;2023-02-11T01:57:39;8.23;;;2.80;;
55065;SDS011;40964;42.114;24.220;2023-02-11T02:05:13;2.45;;;1.80;;
55065;SDS011;40964;42.114;24.220;2023-02-11T02:10:50;4.03;;;1.88;;
55065;SDS011;40964;42.114;24.220;2023-02-11T02:13:20;1.85;;;1.55;;
55065;SDS011;40964;42.114;24.220;2023-02-11T02:15:54;2.90;;;1.85;;
55065;SDS011;40964;42.114;24.220;2023-02-11T02:21:55;6.57;;;2.92;;
55065;SDS011;40964;42.114;24.220;2023-02-11T02:32:29;3.95;;;2.30;;
55065;SDS011;40964;42.114;24.220;2023-02-11T02:40:11;6.85;;;2.75;;
55065;SDS011;40964;42.114;24.220;2023-02-11T02:42:41;3.63;;;2.63;;
55065;SDS011;40964;42.114;24.220;2023-02-11T02:45:08;1.70;;;1.60;;
55065;SDS011;40964;42.114;24.220;2023-02-11T02:47:36;13.85;;;3.40;;
55065;SDS011;40964;42.114;24.220;2023-02-11T02:50:02;6.07;;;2.85;;
55065;SDS011;40964;42.114;24.220;2023-02-11T03:01:01;10.10;;;3.50;;
55065;SDS011;40964;42.114;24.220;2023-02-11T03:09:21;8.68;;;3.92;;
55065;SDS011;40964;42.114;24.220;2023-02-11T03:11:52;11.05;;;3.47;;
55065;SDS011;40964;42.114;24.220;2023-02-11T03:14:18;10.13;;;3.15;;
55065;SDS011;40964;42.114;24.220;2023-02-11T03:16:46;9.70;;;4.30;;
55065;SDS011;40964;42.114;24.220;2023-02-11T03:19:16;14.20;;;5.75;;
55065;SDS011;40964;42.114;24.220;2023-02-11T03:21:47;9.63;;;5.05;;
55065;SDS011;40964;42.114;24.220;2023-02-11T03:24:30;6.05;;;2.45;;
55065;SDS011;40964;42.114;24.220;2023-02-11T03:27:19;4.35;;;2.97;;
55065;SDS011;40964;42.114;24.220;2023-02-11T03:32:37;5.75;;;1.52;;
55065;SDS011;40964;42.114;24.220;2023-02-11T03:35:13;4.43;;;2.15;;
55065;SDS011;40964;42.114;24.220;2023-02-11T03:37:59;8.70;;;2.55;;
55065;SDS011;40964;42.114;24.220;2023-02-11T03:40:46;4.60;;;2.65;;
55065;SDS011;40964;42.114;24.220;2023-02-11T03:43:25;2.65;;;2.13;;
55065;SDS011;40964;42.114;24.220;2023-02-11T03:45:54;2.55;;;1.92;;
55065;SDS011;40964;42.114;24.220;2023-02-11T03:48:24;13.27;;;4.28;;
55065;SDS011;40964;42.114;24.220;2023-02-11T03:50:54;7.35;;;2.30;;
55065;SDS011;40964;42.114;24.220;2023-02-11T03:53:22;6.60;;;2.83;;
55065;SDS011;40964;42.114;24.220;2023-02-11T03:55:49;15.52;;;5.90;;
55065;SDS011;40964;42.114;24.220;2023-02-11T03:58:18;14.52;;;6.10;;
55065;SDS011;40964;42.114;24.220;2023-02-11T04:00:43;19.90;;;5.93;;
55065;SDS011;40964;42.114;24.220;2023-02-11T04:03:10;21.50;;;6.60;;
55065;SDS011;40964;42.114;24.220;2023-02-11T04:05:36;15.80;;;5.28;;
55065;SDS011;40964;42.114;24.220;2023-02-11T04:08:02;4.60;;;2.33;;
55065;SDS011;40964;42.114;24.220;2023-02-11T04:10:27;6.18;;;1.98;;
55065;SDS011;40964;42.114;24.220;2023-02-11T04:12:53;11.38;;;2.97;;
55065;SDS011;40964;42.114;24.220;2023-02-11T04:15:19;10.77;;;2.97;;
55065;SDS011;40964;42.114;24.220;2023-02-11T04:17:44;3.53;;;2.60;;
55065;SDS011;40964;42.114;24.220;2023-02-11T04:20:10;5.40;;;2.15;;
55065;SDS011;40964;42.114;24.220;2023-02-11T04:22:36;10.32;;;3.65;;
55065;SDS011;40964;42.114;24.220;2023-02-11T04:25:02;5.68;;;2.28;;
55065;SDS011;40964;42.114;24.220;2023-02-11T04:27:29;5.72;;;2.60;;
55065;SDS011;40964;42.114;24.220;2023-02-11T04:29:55;6.22;;;2.75;;
55065;SDS011;40964;42.114;24.220;2023-02-11T04:32:20;4.80;;;1.98;;
55065;SDS011;40964;42.114;24.220;2023-02-11T04:34:46;8.13;;;2.65;;
55065;SDS011;40964;42.114;24.220;2023-02-11T04:37:12;4.53;;;2.00;;
55065;SDS011;40964;42.114;24.220;2023-02-11T04:39:38;3.35;;;2.35;;
55065;SDS011;40964;42.114;24.220;2023-02-11T04:42:03;8.55;;;2.97;;
55065;SDS011;40964;42.114;24.220;2023-02-11T04:44:29;7.03;;;2.55;;
55065;SDS011;40964;42.114;24.220;2023-02-11T04:46:54;6.38;;;3.17;;
55065;SDS011;40964;42.114;24.220;2023-02-11T04:49:20;4.28;;;2.53;;
55065;SDS011;40964;42.114;24.220;2023-02-11T04:51:45;4.70;;;2.38;;
55065;SDS011;40964;42.114;24.220;2023-02-11T04:54:11;4.50;;;2.50;;
55065;SDS011;40964;42.114;24.220;2023-02-11T04:56:37;11.05;;;2.38;;
55065;SDS011;40964;42.114;24.220;2023-02-11T04:59:03;8.88;;;2.28;;
55065;SDS011;40964;42.114;24.220;2023-02-11T05:01:29;5.32;;;3.08;;
55065;SDS011;40964;42.114;24.220;2023-02-11T05:03:55;10.95;;;3.40;;
55065;SDS011;40964;42.114;24.220;2023-02-11T05:06:20;17.45;;;3.65;;
55065;SDS011;40964;42.114;24.220;2023-02-11T05:08:46;3.83;;;2.83;;
55065;SDS011;40964;42.114;24.220;2023-02-11T05:11:18;6.78;;;3.20;;
55065;SDS011;40964;42.114;24.220;2023-02-11T05:13:46;16.85;;;3.15;;
55065;SDS011;40964;42.114;24.220;2023-02-11T05:16:12;3.47;;;3.15;;
55065;SDS011;40964;42.114;24.220;2023-02-11T05:18:39;5.80;;;2.67;;
55065;SDS011;40964;42.114;24.220;2023-02-11T05:21:06;5.88;;;3.05;;
55065;SDS011;40964;42.114;24.220;2023-02-11T05:23:40;5.05;;;2.65;;
55065;SDS011;40964;42.114;24.220;2023-02-11T05:26:06;6.68;;;3.20;;
55065;SDS011;40964;42.114;24.220;2023-02-11T05:28:32;3.60;;;2.53;;
55065;SDS011;40964;42.114;24.220;2023-02-11T05:30:59;8.50;;;3.67;;
55065;SDS011;40964;42.114;24.220;2023-02-11T05:33:25;2.53;;;2.33;;
55065;SDS011;40964;42.114;24.220;2023-02-11T05:35:51;6.10;;;2.28;;
55065;SDS011;40964;42.114;24.220;2023-02-11T05:38:22;3.42;;;1.85;;
55065;SDS011;40964;42.114;24.220;2023-02-11T05:40:47;12.48;;;3.40;;
55065;SDS011;40964;42.114;24.220;2023-02-11T05:43:13;4.20;;;2.88;;
55065;SDS011;40964;42.114;24.220;2023-02-11T05:45:38;15.18;;;4.28;;
55065;SDS011;40964;42.114;24.220;2023-02-11T05:48:04;5.68;;;3.10;;
55065;SDS011;40964;42.114;24.220;2023-02-11T05:50:29;7.03;;;3.08;;
55065;SDS011;40964;42.114;24.220;2023-02-11T05:52:55;2.40;;;1.52;;
55065;SDS011;40964;42.114;24.220;2023-02-11T05:55:20;8.40;;;3.20;;
55065;SDS011;40964;42.114;24.220;2023-02-11T05:57:46;5.85;;;3.85;;
55065;SDS011;40964;42.114;24.220;2023-02-11T06:00:11;10.40;;;3.75;;
55065;SDS011;40964;42.114;24.220;2023-02-11T06:02:38;6.53;;;3.45;;
55065;SDS011;40964;42.114;24.220;2023-02-11T06:05:04;8.77;;;4.20;;
55065;SDS011;40964;42.114;24.220;2023-02-11T06:07:29;7.30;;;3.95;;
55065;SDS011;40964;42.114;24.220;2023-02-11T06:09:55;19.52;;;5.68;;
55065;SDS011;40964;42.114;24.220;2023-02-11T06:12:20;12.15;;;5.70;;
55065;SDS011;40964;42.114;24.220;2023-02-11T06:14:46;13.38;;;5.80;;
55065;SDS011;40964;42.114;24.220;2023-02-11T06:17:11;41.55;;;5.78;;
55065;SDS011;40964;42.114;24.220;2023-02-11T06:19:37;34.90;;;8.13;;
55065;SDS011;40964;42.114;24.220;2023-02-11T06:22:02;17.52;;;5.78;;
55065;SDS011;40964;42.114;24.220;2023-02-11T06:24:28;13.50;;;6.82;;
55065;SDS011;40964;42.114;24.220;2023-02-11T06:26:53;8.27;;;4.78;;
55065;SDS011;40964;42.114;24.220;2023-02-11T06:29:18;8.35;;;4.22;;
55065;SDS011;40964;42.114;24.220;2023-02-11T06:31:44;14.45;;;4.65;;
55065;SDS011;40964;42.114;24.220;2023-02-11T06:34:09;15.02;;;6.82;;
55065;SDS011;40964;42.114;24.220;2023-02-11T06:36:36;15.60;;;7.22;;
55065;SDS011;40964;42.114;24.220;2023-02-11T06:39:03;19.67;;;7.43;;
55065;SDS011;40964;42.114;24.220;2023-02-11T06:41:29;28.70;;;11.57;;
55065;SDS011;40964;42.114;24.220;2023-02-11T06:43:54;29.50;;;11.75;;
55065;SDS011;40964;42.114;24.220;2023-02-11T06:46:20;37.55;;;12.55;;
55065;SDS011;40964;42.114;24.220;2023-02-11T06:48:46;53.20;;;18.33;;
55065;SDS011;40964;42.114;24.220;2023-02-11T06:51:12;46.65;;;14.40;;
55065;SDS011;40964;42.114;24.220;2023-02-11T06:53:39;33.60;;;12.38;;
55065;SDS011;40964;42.114;24.220;2023-02-11T06:56:07;51.05;;;16.83;;
55065;SDS011;40964;42.114;24.220;2023-02-11T06:58:35;31.50;;;14.35;;
55065;SDS011;40964;42.114;24.220;2023-02-11T07:01:08;66.45;;;22.33;;
55065;SDS011;40964;42.114;24.220;2023-02-11T07:03:37;16.05;;;4.68;;
55065;SDS011;40964;42.114;24.220;2023-02-11T07:06:04;18.00;;;7.03;;
55065;SDS011;40964;42.114;24.220;2023-02-11T07:08:32;14.40;;;5.65;;
55065;SDS011;40964;42.114;24.220;2023-02-11T07:10:58;14.38;;;6.43;;
55065;SDS011;40964;42.114;24.220;2023-02-11T07:13:23;18.42;;;4.75;;
55065;SDS011;40964;42.114;24.220;2023-02-11T07:15:49;14.02;;;5.90;;
55065;SDS011;40964;42.114;24.220;2023-02-11T07:18:15;11.75;;;4.65;;
55065;SDS011;40964;42.114;24.220;2023-02-11T07:20:40;10.57;;;5.75;;
55065;SDS011;40964;42.114;24.220;2023-02-11T07:23:06;10.38;;;4.70;;
55065;SDS011;40964;42.114;24.220;2023-02-11T07:25:31;8.82;;;4.40;;
55065;SDS011;40964;42.114;24.220;2023-02-11T07:27:57;8.77;;;3.85;;
55065;SDS011;40964;42.114;24.220;2023-02-11T07:30:22;12.15;;;4.82;;
55065;SDS011;40964;42.114;24.220;2023-02-11T07:32:48;16.60;;;7.43;;
55065;SDS011;40964;42.114;24.220;2023-02-11T07:35:13;16.27;;;6.00;;
55065;SDS011;40964;42.114;24.220;2023-02-11T07:37:39;14.02;;;6.78;;
55065;SDS011;40964;42.114;24.220;2023-02-11T07:40:05;15.88;;;6.20;;
55065;SDS011;40964;42.114;24.220;2023-02-11T07:42:33;12.45;;;5.88;;
55065;SDS011;40964;42.114;24.220;2023-02-11T07:44:59;18.17;;;5.00;;
55065;SDS011;40964;42.114;24.220;2023-02-11T07:47:25;11.73;;;3.97;;
55065;SDS011;40964;42.114;24.220;2023-02-11T07:49:50;18.02;;;5.35;;
55065;SDS011;40964;42.114;24.220;2023-02-11T07:52:16;15.60;;;5.53;;
55065;SDS011;40964;42.114;24.220;2023-02-11T07:54:41;13.07;;;5.45;;
55065;SDS011;40964;42.114;24.220;2023-02-11T07:57:07;18.23;;;7.45;;
55065;SDS011;40964;42.114;24.220;2023-02-11T07:59:32;12.98;;;6.53;;
55065;SDS011;40964;42.114;24.220;2023-02-11T08:01:58;11.60;;;6.82;;
55065;SDS011;40964;42.114;24.220;2023-02-11T08:04:23;20.08;;;7.28;;
55065;SDS011;40964;42.114;24.220;2023-02-11T08:06:49;16.15;;;6.55;;
55065;SDS011;40964;42.114;24.220;2023-02-11T08:09:17;25.73;;;6.95;;
55065;SDS011;40964;42.114;24.220;2023-02-11T08:11:42;12.23;;;5.13;;
55065;SDS011;40964;42.114;24.220;2023-02-11T08:14:08;13.95;;;6.82;;
55065;SDS011;40964;42.114;24.220;2023-02-11T08:16:34;10.52;;;5.00;;
55065;SDS011;40964;42.114;24.220;2023-02-11T08:19:02;12.73;;;5.15;;
55065;SDS011;40964;42.114;24.220;2023-02-11T08:21:30;21.20;;;7.25;;
55065;SDS011;40964;42.114;24.220;2023-02-11T08:23:55;17.30;;;6.85;;
55065;SDS011;40964;42.114;24.220;2023-02-11T08:26:22;17.58;;;7.43;;
55065;SDS011;40964;42.114;24.220;2023-02-11T08:28:53;16.17;;;7.10;;
55065;SDS011;40964;42.114;24.220;2023-02-11T08:31:22;14.95;;;5.03;;
55065;SDS011;40964;42.114;24.220;2023-02-11T08:33:49;11.55;;;5.60;;
55065;SDS011;40964;42.114;24.220;2023-02-11T08:36:16;20.75;;;8.68;;
55065;SDS011;40964;42.114;24.220;2023-02-11T08:38:44;21.48;;;7.93;;
55065;SDS011;40964;42.114;24.220;2023-02-11T08:41:10;16.98;;;7.72;;
55065;SDS011;40964;42.114;24.220;2023-02-11T08:43:35;14.40;;;6.38;;
55065;SDS011;40964;42.114;24.220;2023-02-11T08:46:05;21.10;;;7.88;;
55065;SDS011;40964;42.114;24.220;2023-02-11T08:48:32;19.35;;;7.32;;
55065;SDS011;40964;42.114;24.220;2023-02-11T08:50:57;17.15;;;7.22;;
55065;SDS011;40964;42.114;24.220;2023-02-11T08:53:23;14.88;;;5.65;;
55065;SDS011;40964;42.114;24.220;2023-02-11T08:55:50;15.45;;;6.50;;
55065;SDS011;40964;42.114;24.220;2023-02-11T08:58:16;14.35;;;6.32;;
55065;SDS011;40964;42.114;24.220;2023-02-11T09:00:42;15.68;;;6.43;;
55065;SDS011;40964;42.114;24.220;2023-02-11T09:03:09;17.65;;;7.72;;
55065;SDS011;40964;42.114;24.220;2023-02-11T09:05:39;14.48;;;5.70;;
55065;SDS011;40964;42.114;24.220;2023-02-11T09:08:08;15.77;;;5.72;;
55065;SDS011;40964;42.114;24.220;2023-02-11T09:10:34;13.52;;;6.18;;
55065;SDS011;40964;42.114;24.220;2023-02-11T09:12:59;12.18;;;5.50;;
55065;SDS011;40964;42.114;24.220;2023-02-11T09:15:25;14.65;;;5.63;;
55065;SDS011;40964;42.114;24.220;2023-02-11T09:17:50;13.13;;;5.50;;
55065;SDS011;40964;42.114;24.220;2023-02-11T09:20:16;10.20;;;4.55;;
55065;SDS011;40964;42.114;24.220;2023-02-11T09:22:42;11.90;;;4.80;;
55065;SDS011;40964;42.114;24.220;2023-02-11T09:25:08;24.88;;;6.50;;
55065;SDS011;40964;42.114;24.220;2023-02-11T09:27:33;18.48;;;6.03;;
55065;SDS011;40964;42.114;24.220;2023-02-11T09:29:59;13.05;;;5.60;;
55065;SDS011;40964;42.114;24.220;2023-02-11T09:32:24;16.35;;;6.05;;
55065;SDS011;40964;42.114;24.220;2023-02-11T09:34:50;14.45;;;6.53;;
55065;SDS011;40964;42.114;24.220;2023-02-11T09:37:15;12.75;;;4.57;;
55065;SDS011;40964;42.114;24.220;2023-02-11T09:39:41;14.45;;;5.47;;
55065;SDS011;40964;42.114;24.220;2023-02-11T09:42:17;14.93;;;5.82;;
55065;SDS011;40964;42.114;24.220;2023-02-11T09:44:54;15.40;;;5.70;;
55065;SDS011;40964;42.114;24.220;2023-02-11T09:47:29;10.30;;;5.13;;
55065;SDS011;40964;42.114;24.220;2023-02-11T09:50:09;9.85;;;4.45;;
55065;SDS011;40964;42.114;24.220;2023-02-11T09:55:38;11.48;;;5.05;;
55065;SDS011;40964;42.114;24.220;2023-02-11T09:58:11;13.82;;;4.65;;
55065;SDS011;40964;42.114;24.220;2023-02-11T10:01:01;10.65;;;4.47;;
55065;SDS011;40964;42.114;24.220;2023-02-11T10:03:42;6.60;;;3.40;;
55065;SDS011;40964;42.114;24.220;2023-02-11T10:11:39;11.82;;;5.35;;
55065;SDS011;40964;42.114;24.220;2023-02-11T10:14:40;11.70;;;5.00;;
55065;SDS011;40964;42.114;24.220;2023-02-11T10:22:23;8.50;;;3.63;;
55065;SDS011;40964;42.114;24.220;2023-02-11T10:27:29;7.13;;;2.85;;
55065;SDS011;40964;42.114;24.220;2023-02-11T10:30:06;14.00;;;4.38;;
55065;SDS011;40964;42.114;24.220;2023-02-11T10:32:59;6.40;;;3.33;;
55065;SDS011;40964;42.114;24.220;2023-02-11T10:35:39;13.63;;;4.57;;
55065;SDS011;40964;42.114;24.220;2023-02-11T10:38:08;14.98;;;6.05;;
55065;SDS011;40964;42.114;24.220;2023-02-11T10:40:34;11.75;;;4.43;;
55065;SDS011;40964;42.114;24.220;2023-02-11T10:43:02;9.38;;;4.20;;
55065;SDS011;40964;42.114;24.220;2023-02-11T10:45:35;12.95;;;5.45;;
55065;SDS011;40964;42.114;24.220;2023-02-11T10:48:05;9.25;;;3.83;;
55065;SDS011;40964;42.114;24.220;2023-02-11T10:50:50;14.38;;;4.20;;
55065;SDS011;40964;42.114;24.220;2023-02-11T10:53:40;11.88;;;5.13;;
55065;SDS011;40964;42.114;24.220;2023-02-11T10:56:06;13.05;;;4.20;;
55065;SDS011;40964;42.114;24.220;2023-02-11T10:58:53;9.07;;;4.00;;
55065;SDS011;40964;42.114;24.220;2023-02-11T11:01:23;6.70;;;3.40;;
55065;SDS011;40964;42.114;24.220;2023-02-11T11:04:06;9.00;;;3.50;;
55065;SDS011;40964;42.114;24.220;2023-02-11T11:06:50;8.63;;;4.18;;
55065;SDS011;40964;42.114;24.220;2023-02-11T11:14:58;11.90;;;5.47;;
55065;SDS011;40964;42.114;24.220;2023-02-11T11:17:37;11.00;;;3.47;;
55065;SDS011;40964;42.114;24.220;2023-02-11T11:22:47;11.48;;;5.60;;
55065;SDS011;40964;42.114;24.220;2023-02-11T11:25:27;22.55;;;10.63;;
55065;SDS011;40964;42.114;24.220;2023-02-11T11:27:55;12.45;;;5.90;;
55065;SDS011;40964;42.114;24.220;2023-02-11T11:30:24;13.07;;;5.07;;
55065;SDS011;40964;42.114;24.220;2023-02-11T11:32:55;13.45;;;6.05;;
55065;SDS011;40964;42.114;24.220;2023-02-11T11:35:27;54.70;;;20.38;;
55065;SDS011;40964;42.114;24.220;2023-02-11T11:40:31;19.27;;;6.93;;
55065;SDS011;40964;42.114;24.220;2023-02-11T11:45:54;10.85;;;5.53;;
55065;SDS011;40964;42.114;24.220;2023-02-11T11:48:44;8.27;;;4.18;;
55065;SDS011;40964;42.114;24.220;2023-02-11T11:51:11;13.23;;;5.43;;
55065;SDS011;40964;42.114;24.220;2023-02-11T11:53:38;13.05;;;5.40;;
55065;SDS011;40964;42.114;24.220;2023-02-11T11:56:10;10.25;;;4.95;;
55065;SDS011;40964;42.114;24.220;2023-02-11T11:58:36;12.18;;;5.38;;
55065;SDS011;40964;42.114;24.220;2023-02-11T12:14:48;13.18;;;5.93;;
55065;SDS011;40964;42.114;24.220;2023-02-11T12:22:50;13.30;;;6.80;;
55065;SDS011;40964;42.114;24.220;2023-02-11T12:28:34;14.20;;;7.07;;
55065;SDS011;40964;42.114;24.220;2023-02-11T12:42:54;13.07;;;5.47;;
55065;SDS011;40964;42.114;24.220;2023-02-11T12:51:50;14.55;;;6.30;;
55065;SDS011;40964;42.114;24.220;2023-02-11T12:54:23;18.88;;;7.63;;
55065;SDS011;40964;42.114;24.220;2023-02-11T12:57:06;15.13;;;6.68;;
55065;SDS011;40964;42.114;24.220;2023-02-11T13:05:47;12.02;;;6.53;;
55065;SDS011;40964;42.114;24.220;2023-02-11T13:10:51;9.80;;;5.45;;
55065;SDS011;40964;42.114;24.220;2023-02-11T13:13:53;17.13;;;7.47;;
55065;SDS011;40964;42.114;24.220;2023-02-11T13:16:33;14.98;;;6.28;;
55065;SDS011;40964;42.114;24.220;2023-02-11T13:32:13;14.43;;;6.05;;
55065;SDS011;40964;42.114;24.220;2023-02-11T13:37:05;12.25;;;5.32;;
55065;SDS011;40964;42.114;24.220;2023-02-11T13:39:53;9.93;;;4.82;;
55065;SDS011;40964;42.114;24.220;2023-02-11T13:42:24;12.48;;;5.40;;
55065;SDS011;40964;42.114;24.220;2023-02-11T13:44:50;17.02;;;6.43;;
55065;SDS011;40964;42.114;24.220;2023-02-11T13:47:24;16.15;;;5.75;;
55065;SDS011;40964;42.114;24.220;2023-02-11T13:49:55;12.93;;;5.30;;
55065;SDS011;40964;42.114;24.220;2023-02-11T13:52:32;11.18;;;5.03;;
55065;SDS011;40964;42.114;24.220;2023-02-11T13:55:34;13.73;;;7.00;;
55065;SDS011;40964;42.114;24.220;2023-02-11T14:11:44;11.52;;;5.38;;
55065;SDS011;40964;42.114;24.220;2023-02-11T14:14:23;12.85;;;5.60;;
55065;SDS011;40964;42.114;24.220;2023-02-11T14:19:33;17.27;;;8.00;;
55065;SDS011;40964;42.114;24.220;2023-02-11T14:22:17;17.98;;;8.18;;
55065;SDS011;40964;42.114;24.220;2023-02-11T14:32:43;20.00;;;8.18;;
55065;SDS011;40964;42.114;24.220;2023-02-11T14:38:00;15.60;;;6.97;;
55065;SDS011;40964;42.114;24.220;2023-02-11T14:40:30;19.00;;;8.25;;
55065;SDS011;40964;42.114;24.220;2023-02-11T14:43:11;15.60;;;5.93;;
55065;SDS011;40964;42.114;24.220;2023-02-11T14:45:42;11.68;;;5.28;;
55065;SDS011;40964;42.114;24.220;2023-02-11T14:48:15;12.65;;;5.45;;
55065;SDS011;40964;42.114;24.220;2023-02-11T14:50:44;10.00;;;4.88;;
55065;SDS011;40964;42.114;24.220;2023-02-11T14:53:14;9.20;;;4.53;;
55065;SDS011;40964;42.114;24.220;2023-02-11T14:55:43;9.40;;;4.60;;
55065;SDS011;40964;42.114;24.220;2023-02-11T14:58:13;12.52;;;5.32;;
55065;SDS011;40964;42.114;24.220;2023-02-11T15:01:03;13.77;;;4.22;;
55065;SDS011;40964;42.114;24.220;2023-02-11T15:03:34;10.85;;;4.00;;
55065;SDS011;40964;42.114;24.220;2023-02-11T15:06:05;10.13;;;4.05;;
55065;SDS011;40964;42.114;24.220;2023-02-11T15:08:55;13.52;;;5.10;;
55065;SDS011;40964;42.114;24.220;2023-02-11T15:11:27;15.18;;;6.05;;
55065;SDS011;40964;42.114;24.220;2023-02-11T15:13:58;10.05;;;4.18;;
55065;SDS011;40964;42.114;24.220;2023-02-11T15:16:32;11.57;;;4.90;;
55065;SDS011;40964;42.114;24.220;2023-02-11T15:19:00;20.52;;;5.55;;
55065;SDS011;40964;42.114;24.220;2023-02-11T15:21:29;10.02;;;4.32;;
55065;SDS011;40964;42.114;24.220;2023-02-11T15:23:59;14.63;;;4.75;;
55065;SDS011;40964;42.114;24.220;2023-02-11T15:26:25;12.77;;;5.18;;
55065;SDS011;40964;42.114;24.220;2023-02-11T15:28:50;9.32;;;4.50;;
55065;SDS011;40964;42.114;24.220;2023-02-11T15:31:17;13.32;;;5.53;;
55065;SDS011;40964;42.114;24.220;2023-02-11T15:33:47;14.25;;;6.18;;
55065;SDS011;40964;42.114;24.220;2023-02-11T15:36:13;15.57;;;6.57;;
55065;SDS011;40964;42.114;24.220;2023-02-11T15:38:40;15.93;;;5.70;;
55065;SDS011;40964;42.114;24.220;2023-02-11T15:41:05;16.98;;;5.60;;
55065;SDS011;40964;42.114;24.220;2023-02-11T15:46:06;11.55;;;4.72;;
55065;SDS011;40964;42.114;24.220;2023-02-11T15:48:36;12.18;;;4.95;;
55065;SDS011;40964;42.114;24.220;2023-02-11T15:51:19;9.25;;;4.70;;
55065;SDS011;40964;42.114;24.220;2023-02-11T15:53:51;7.72;;;4.57;;
55065;SDS011;40964;42.114;24.220;2023-02-11T15:56:25;9.88;;;4.72;;
55065;SDS011;40964;42.114;24.220;2023-02-11T15:58:54;12.38;;;5.03;;
55065;SDS011;40964;42.114;24.220;2023-02-11T16:01:32;11.43;;;5.80;;
55065;SDS011;40964;42.114;24.220;2023-02-11T16:04:00;21.13;;;8.57;;
55065;SDS011;40964;42.114;24.220;2023-02-11T16:06:34;12.77;;;6.07;;
55065;SDS011;40964;42.114;24.220;2023-02-11T16:11:33;11.77;;;4.90;;
55065;SDS011;40964;42.114;24.220;2023-02-11T16:14:15;11.57;;;4.78;;
55065;SDS011;40964;42.114;24.220;2023-02-11T16:16:56;9.82;;;4.78;;
55065;SDS011;40964;42.114;24.220;2023-02-11T16:19:24;9.68;;;4.53;;
55065;SDS011;40964;42.114;24.220;2023-02-11T16:21:51;8.90;;;4.13;;
55065;SDS011;40964;42.114;24.220;2023-02-11T16:24:26;12.35;;;4.80;;
55065;SDS011;40964;42.114;24.220;2023-02-11T16:27:01;9.73;;;4.90;;
55065;SDS011;40964;42.114;24.220;2023-02-11T16:29:29;11.98;;;6.00;;
55065;SDS011;40964;42.114;24.220;2023-02-11T16:32:13;13.50;;;5.57;;
55065;SDS011;40964;42.114;24.220;2023-02-11T16:34:43;10.98;;;5.35;;
55065;SDS011;40964;42.114;24.220;2023-02-11T16:37:09;12.50;;;4.60;;
55065;SDS011;40964;42.114;24.220;2023-02-11T16:39:34;11.98;;;5.20;;
55065;SDS011;40964;42.114;24.220;2023-02-11T16:42:00;10.00;;;4.70;;
55065;SDS011;40964;42.114;24.220;2023-02-11T16:44:26;9.52;;;4.47;;
55065;SDS011;40964;42.114;24.220;2023-02-11T16:46:53;14.18;;;5.95;;
55065;SDS011;40964;42.114;24.220;2023-02-11T16:49:22;17.27;;;6.65;;
55065;SDS011;40964;42.114;24.220;2023-02-11T16:51:50;15.18;;;6.20;;
55065;SDS011;40964;42.114;24.220;2023-02-11T16:54:20;13.07;;;5.50;;
55065;SDS011;40964;42.114;24.220;2023-02-11T16:56:46;11.13;;;5.70;;
55065;SDS011;40964;42.114;24.220;2023-02-11T16:59:11;20.27;;;7.45;;
55065;SDS011;40964;42.114;24.220;2023-02-11T17:01:37;17.27;;;6.50;;
55065;SDS011;40964;42.114;24.220;2023-02-11T17:04:05;19.67;;;8.02;;
55065;SDS011;40964;42.114;24.220;2023-02-11T17:06:34;19.05;;;7.30;;
55065;SDS011;40964;42.114;24.220;2023-02-11T17:09:00;17.70;;;7.47;;
55065;SDS011;40964;42.114;24.220;2023-02-11T17:11:25;21.88;;;8.98;;
55065;SDS011;40964;42.114;24.220;2023-02-11T17:13:51;30.23;;;11.20;;
55065;SDS011;40964;42.114;24.220;2023-02-11T17:16:17;23.45;;;9.02;;
55065;SDS011;40964;42.114;24.220;2023-02-11T17:18:44;41.30;;;11.70;;
55065;SDS011;40964;42.114;24.220;2023-02-11T17:21:10;18.55;;;7.38;;
55065;SDS011;40964;42.114;24.220;2023-02-11T17:23:36;13.68;;;5.70;;
55065;SDS011;40964;42.114;24.220;2023-02-11T17:26:01;16.60;;;6.78;;